createdAt,value
2023-05-20T00:01:11.233Z,24.13
2023-05-20T00:03:38.827Z,23.67
2023-05-20T00:06:06.252Z,22.88
2023-05-20T00:08:33.486Z,28.27
2023-05-20T00:11:00.952Z,27.88
2023-05-20T00:13:28.329Z,29.80
2023-05-20T00:15:55.555Z,30.58
2023-05-20T00:18:22.851Z,26.38
2023-05-20T00:20:50.200Z,27.25
2023-05-20T00:23:17.354Z,29.73
2023-05-20T00:25:44.135Z,28.48
2023-05-20T00:28:11.527Z,25.23
2023-05-20T00:30:42.569Z,28.50
2023-05-20T00:33:09.999Z,31.27
2023-05-20T00:35:37.239Z,34.63
2023-05-20T00:38:04.600Z,28.30
2023-05-20T00:40:31.846Z,33.00
2023-05-20T00:42:59.073Z,31.88
2023-05-20T00:45:26.485Z,31.95
2023-05-20T00:47:54.080Z,30.73
2023-05-20T00:50:22.088Z,30.80
2023-05-20T00:52:52.187Z,31.33
2023-05-20T00:55:19.601Z,30.95
2023-05-20T00:57:47.099Z,28.25
2023-05-20T01:00:14.905Z,34.55
2023-05-20T01:02:42.306Z,35.90
2023-05-20T01:05:09.997Z,34.70
2023-05-20T01:07:37.094Z,39.30
2023-05-20T01:10:04.811Z,40.08
2023-05-20T01:13:00.367Z,38.15
2023-05-20T01:15:28.498Z,39.70
2023-05-20T01:18:01.970Z,39.53
2023-05-20T01:20:32.926Z,37.08
2023-05-20T01:23:00.296Z,41.15
2023-05-20T01:25:27.872Z,41.95
2023-05-20T01:27:58.168Z,39.33
2023-05-20T01:30:34.495Z,39.45
2023-05-20T01:33:21.537Z,37.92
2023-05-20T01:35:49.477Z,36.72
2023-05-20T01:38:19.378Z,36.90
2023-05-20T01:40:48.990Z,38.90
2023-05-20T01:43:19.380Z,36.08
2023-05-20T01:45:46.883Z,34.65
2023-05-20T01:48:14.316Z,37.03
2023-05-20T01:50:41.723Z,37.20
2023-05-20T01:53:10.099Z,41.22
2023-05-20T01:55:36.979Z,40.30
2023-05-20T01:58:04.287Z,38.53
2023-05-20T02:00:34.050Z,40.08
2023-05-20T02:03:02.025Z,40.00
2023-05-20T02:05:29.338Z,42.92
2023-05-20T02:07:56.732Z,42.08
2023-05-20T02:10:24.026Z,44.47
2023-05-20T02:12:51.345Z,38.97
2023-05-20T02:15:18.579Z,42.75
2023-05-20T02:17:47.531Z,43.58
2023-05-20T02:20:14.807Z,40.85
2023-05-20T02:22:42.236Z,39.72
2023-05-20T02:25:10.342Z,38.45
2023-05-20T02:27:37.737Z,42.22
2023-05-20T02:30:05.382Z,41.33
2023-05-20T02:32:34.284Z,46.35
2023-05-20T02:35:01.732Z,42.17
2023-05-20T02:37:29.323Z,45.08
2023-05-20T02:39:56.798Z,37.90
2023-05-20T02:42:24.276Z,47.20
2023-05-20T02:44:51.654Z,40.40
2023-05-20T02:47:19.023Z,38.58
2023-05-20T02:49:47.009Z,38.67
2023-05-20T02:52:14.586Z,34.35
2023-05-20T02:54:41.543Z,29.83
2023-05-20T02:57:09.025Z,32.58
2023-05-20T02:59:36.477Z,33.28
2023-05-20T03:02:03.690Z,29.30
2023-05-20T03:04:32.178Z,27.95
2023-05-20T03:06:59.108Z,30.45
2023-05-20T03:09:26.467Z,27.20
2023-05-20T03:11:53.657Z,27.40
2023-05-20T03:14:20.702Z,28.63
2023-05-20T03:16:47.892Z,25.38
2023-05-20T03:19:14.652Z,28.50
2023-05-20T03:21:41.997Z,31.90
2023-05-20T03:24:09.246Z,29.10
2023-05-20T03:26:38.147Z,26.83
2023-05-20T03:29:06.040Z,28.38
2023-05-20T03:31:32.731Z,25.63
2023-05-20T03:33:59.870Z,27.95
2023-05-20T03:36:26.869Z,30.30
2023-05-20T03:38:53.569Z,27.30
2023-05-20T03:41:21.401Z,35.70
2023-05-20T03:43:48.643Z,33.28
2023-05-20T03:46:15.874Z,29.38
2023-05-20T03:48:43.327Z,30.10
2023-05-20T03:51:10.101Z,29.83
2023-05-20T03:53:37.420Z,29.15
2023-05-20T03:56:04.835Z,32.70
2023-05-20T03:58:32.020Z,28.65
2023-05-20T04:00:59.330Z,31.13
2023-05-20T04:03:26.312Z,27.42
2023-05-20T04:05:53.647Z,31.25
2023-05-20T04:08:22.546Z,27.77
2023-05-20T04:10:49.923Z,29.67
2023-05-20T04:13:17.038Z,28.65
2023-05-20T04:15:43.737Z,27.60
2023-05-20T04:18:11.153Z,30.58
2023-05-20T04:20:37.951Z,30.52
2023-05-20T04:23:04.655Z,27.38
2023-05-20T04:25:31.977Z,29.77
2023-05-20T04:27:59.990Z,29.73
2023-05-20T04:30:26.832Z,31.42
2023-05-20T04:32:55.054Z,29.17
2023-05-20T04:35:21.915Z,31.33
2023-05-20T04:37:49.221Z,30.67
2023-05-20T04:40:17.388Z,31.05
2023-05-20T04:42:45.259Z,31.50
2023-05-20T04:45:13.227Z,28.13
2023-05-20T04:47:40.506Z,27.70
2023-05-20T04:50:12.677Z,29.13
2023-05-20T04:52:39.927Z,30.58
2023-05-20T04:55:10.808Z,31.63
2023-05-20T04:57:42.816Z,31.52
2023-05-20T05:00:11.881Z,32.47
2023-05-20T05:02:39.796Z,32.30
2023-05-20T05:05:07.214Z,32.55
2023-05-20T05:07:34.602Z,37.08
2023-05-20T05:10:01.858Z,30.00
2023-05-20T05:12:29.169Z,32.20
2023-05-20T05:14:56.583Z,28.73
2023-05-20T05:17:23.329Z,28.40
2023-05-20T05:19:50.629Z,30.38
2023-05-20T05:22:17.930Z,29.27
2023-05-20T05:24:45.188Z,27.95
2023-05-20T05:27:11.997Z,29.17
2023-05-20T05:29:38.764Z,31.17
2023-05-20T05:32:05.826Z,32.13
2023-05-20T05:34:32.631Z,29.80
2023-05-20T05:36:59.707Z,28.80
2023-05-20T05:39:26.755Z,29.15
2023-05-20T05:41:54.412Z,31.42
2023-05-20T05:44:21.273Z,33.30
2023-05-20T05:46:48.647Z,28.23
2023-05-20T05:49:15.483Z,26.95
2023-05-20T05:51:42.679Z,28.13
2023-05-20T05:54:09.598Z,28.33
2023-05-20T05:56:36.803Z,29.05
2023-05-20T05:59:05.331Z,28.23
2023-05-20T06:01:32.069Z,29.70
2023-05-20T06:03:59.433Z,28.73
2023-05-20T06:06:26.957Z,25.73
2023-05-20T06:08:54.870Z,30.20
2023-05-20T06:11:23.282Z,26.33
2023-05-20T06:13:50.634Z,27.60
2023-05-20T06:16:17.812Z,29.27
2023-05-20T06:18:47.515Z,35.85
2023-05-20T06:21:14.649Z,29.90
2023-05-20T06:23:41.426Z,27.35
2023-05-20T06:26:08.372Z,26.58
2023-05-20T06:28:35.227Z,31.55
2023-05-20T06:31:02.564Z,34.92
2023-05-20T06:33:30.345Z,32.65
2023-05-20T06:35:59.175Z,31.63
2023-05-20T06:38:26.046Z,30.92
2023-05-20T06:40:53.281Z,32.10
2023-05-20T06:43:20.594Z,31.40
2023-05-20T06:45:48.182Z,30.73
2023-05-20T06:48:15.637Z,30.50
2023-05-20T06:50:42.485Z,34.47
2023-05-20T06:53:10.819Z,28.65
2023-05-20T06:55:38.771Z,29.25
2023-05-20T06:58:05.588Z,29.27
2023-05-20T07:00:32.380Z,28.50
2023-05-20T07:02:59.167Z,34.38
2023-05-20T07:05:27.878Z,26.75
2023-05-20T07:07:54.796Z,25.80
2023-05-20T07:10:21.743Z,30.40
2023-05-20T07:12:49.262Z,30.25
2023-05-20T07:15:16.635Z,30.08
2023-05-20T07:17:44.333Z,30.92
2023-05-20T07:20:11.838Z,27.05
2023-05-20T07:22:38.574Z,28.27
2023-05-20T07:25:05.836Z,27.42
2023-05-20T07:27:33.704Z,31.25
2023-05-20T07:30:00.516Z,26.58
2023-05-20T07:32:27.333Z,24.05
2023-05-20T07:34:54.104Z,26.75
2023-05-20T07:37:21.121Z,23.80
2023-05-20T07:39:47.906Z,22.30
2023-05-20T07:42:14.765Z,26.85
2023-05-20T07:44:41.537Z,26.20
2023-05-20T07:47:08.293Z,23.33
2023-05-20T07:49:35.241Z,20.40
2023-05-20T07:52:03.199Z,23.15
2023-05-20T07:54:30.052Z,24.15
2023-05-20T07:56:57.388Z,21.83
2023-05-20T07:59:25.236Z,22.65
2023-05-20T08:01:52.800Z,21.50
2023-05-20T08:04:19.560Z,20.25
2023-05-20T08:06:46.978Z,22.48
2023-05-20T08:09:13.669Z,22.90
2023-05-20T08:11:40.937Z,23.95
2023-05-20T08:14:07.716Z,28.15
2023-05-20T08:16:35.004Z,21.98
2023-05-20T08:19:01.940Z,23.00
2023-05-20T08:21:28.997Z,20.50
2023-05-20T08:23:56.336Z,22.73
2023-05-20T08:26:23.326Z,27.30
2023-05-20T08:28:50.251Z,23.00
2023-05-20T08:31:18.717Z,22.23
2023-05-20T08:33:45.435Z,24.38
2023-05-20T08:36:12.178Z,24.98
2023-05-20T08:38:38.924Z,23.55
2023-05-20T08:41:05.703Z,23.10
2023-05-20T08:43:32.855Z,23.45
2023-05-20T08:45:59.880Z,23.70
2023-05-20T08:48:30.126Z,23.40
2023-05-20T08:50:58.310Z,23.80
2023-05-20T08:53:27.160Z,24.58
2023-05-20T08:56:00.778Z,22.75
2023-05-20T08:58:30.243Z,21.27
2023-05-20T09:00:59.079Z,24.40
2023-05-20T09:03:26.187Z,20.60
2023-05-20T09:05:54.346Z,18.38
2023-05-20T09:08:26.839Z,18.27
2023-05-20T09:10:54.906Z,17.60
2023-05-20T09:13:23.767Z,18.80
2023-05-20T09:15:50.951Z,17.60
2023-05-20T09:18:17.876Z,18.13
2023-05-20T09:20:47.789Z,17.75
2023-05-20T09:23:15.023Z,18.33
2023-05-20T09:25:42.620Z,16.75
2023-05-20T09:28:09.472Z,18.60
2023-05-20T09:30:36.538Z,22.17
2023-05-20T09:33:05.463Z,18.40
2023-05-20T09:35:37.921Z,18.52
2023-05-20T09:38:08.206Z,19.17
2023-05-20T09:40:38.097Z,17.45
2023-05-20T09:43:08.076Z,16.42
2023-05-20T09:45:35.806Z,17.45
2023-05-20T09:48:04.050Z,19.88
2023-05-20T09:50:32.618Z,16.33
2023-05-20T09:53:04.416Z,17.45
2023-05-20T09:55:32.152Z,16.20
2023-05-20T09:58:02.876Z,16.50
2023-05-20T10:00:30.597Z,16.15
2023-05-20T10:02:58.597Z,16.85
2023-05-20T10:05:30.377Z,16.17
2023-05-20T10:08:15.676Z,16.85
2023-05-20T10:10:54.572Z,17.23
2023-05-20T10:13:40.522Z,19.67
2023-05-20T10:16:38.711Z,14.75
2023-05-20T10:19:19.847Z,13.40
2023-05-20T10:22:05.653Z,13.00
2023-05-20T10:24:41.430Z,15.88
2023-05-20T10:27:10.744Z,13.32
2023-05-20T10:32:27.223Z,14.07
2023-05-20T10:35:06.143Z,13.55
2023-05-20T10:37:45.265Z,14.52
2023-05-20T10:40:14.465Z,15.75
2023-05-20T10:42:42.704Z,16.30
2023-05-20T10:45:11.069Z,17.38
2023-05-20T10:47:43.362Z,13.48
2023-05-20T10:50:30.090Z,17.63
2023-05-20T10:53:05.450Z,16.48
2023-05-20T10:55:40.381Z,13.75
2023-05-20T10:58:08.085Z,13.20
2023-05-20T11:00:37.372Z,16.92
2023-05-20T11:03:06.065Z,14.18
2023-05-20T11:05:33.699Z,14.00
2023-05-20T11:08:11.024Z,15.20
2023-05-20T11:10:43.820Z,17.77
2023-05-20T11:13:14.146Z,15.05
2023-05-20T11:15:42.796Z,13.45
2023-05-20T11:18:11.763Z,15.15
2023-05-20T11:20:39.211Z,14.40
2023-05-20T11:23:06.980Z,14.98
2023-05-20T11:25:34.368Z,12.50
2023-05-20T11:28:01.198Z,13.13
2023-05-20T11:30:28.578Z,13.07
2023-05-20T11:33:02.251Z,13.05
2023-05-20T11:35:32.257Z,12.30
2023-05-20T11:38:09.763Z,12.88
2023-05-20T11:40:49.854Z,12.55
2023-05-20T11:43:18.724Z,13.18
2023-05-20T11:45:48.025Z,12.45
2023-05-20T11:48:17.916Z,13.13
2023-05-20T11:50:47.974Z,12.55
2023-05-20T11:53:20.182Z,12.77
2023-05-20T11:55:50.583Z,14.30
2023-05-20T11:58:19.797Z,12.88
2023-05-20T12:00:52.766Z,13.15
2023-05-20T12:03:24.391Z,13.73
2023-05-20T12:05:51.507Z,15.07
2023-05-20T12:08:18.395Z,12.02
2023-05-20T12:10:45.441Z,13.68
2023-05-20T12:13:13.759Z,12.88
2023-05-20T12:15:40.955Z,13.48
2023-05-20T12:18:07.955Z,13.10
2023-05-20T12:20:35.084Z,11.55
2023-05-20T12:23:02.340Z,12.00
2023-05-20T12:25:29.970Z,14.35
2023-05-20T12:27:57.066Z,14.27
2023-05-20T12:30:24.334Z,11.25
2023-05-20T12:32:52.305Z,11.73
2023-05-20T12:35:38.963Z,11.88
2023-05-20T12:38:07.032Z,15.18
2023-05-20T12:40:35.175Z,13.25
2023-05-20T12:43:04.101Z,12.05
2023-05-20T12:45:31.282Z,12.00
2023-05-20T12:47:58.413Z,11.65
2023-05-20T12:50:26.153Z,12.48
2023-05-20T12:52:53.181Z,12.02
2023-05-20T12:55:20.579Z,13.52
2023-05-20T12:57:57.854Z,14.18
2023-05-20T13:00:24.712Z,12.15
2023-05-20T13:02:52.768Z,13.68
2023-05-20T13:05:19.621Z,14.13
2023-05-20T13:07:46.825Z,11.70
2023-05-20T13:10:14.739Z,12.23
2023-05-20T13:12:46.076Z,12.38
2023-05-20T13:15:14.899Z,12.07
2023-05-20T13:17:45.494Z,12.32
2023-05-20T13:20:13.256Z,11.65
2023-05-20T13:22:40.297Z,14.00
2023-05-20T13:25:08.421Z,11.88
2023-05-20T13:27:36.138Z,14.68
2023-05-20T13:30:04.483Z,12.95
2023-05-20T13:32:31.665Z,12.13
2023-05-20T13:34:59.907Z,11.70
2023-05-20T13:37:27.508Z,15.35
2023-05-20T13:39:54.421Z,13.13
2023-05-20T13:42:21.799Z,11.35
2023-05-20T13:44:48.591Z,10.50
2023-05-20T13:47:15.358Z,10.85
2023-05-20T13:49:42.670Z,9.60
2023-05-20T13:52:09.488Z,10.15
2023-05-20T13:54:36.482Z,9.82
2023-05-20T13:57:08.079Z,10.05
2023-05-20T13:59:35.339Z,11.40
2023-05-20T14:02:03.606Z,11.63
2023-05-20T14:04:31.490Z,13.40
2023-05-20T14:07:00.860Z,10.27
2023-05-20T14:09:27.720Z,10.80
2023-05-20T14:11:55.124Z,8.40
2023-05-20T14:14:22.408Z,9.38
2023-05-20T14:16:49.165Z,9.38
2023-05-20T14:19:15.928Z,10.00
2023-05-20T14:21:42.785Z,9.73
2023-05-20T14:24:09.540Z,11.60
2023-05-20T14:26:36.664Z,9.45
2023-05-20T14:29:03.550Z,8.63
2023-05-20T14:31:30.891Z,9.05
2023-05-20T14:33:57.954Z,10.80
2023-05-20T14:36:24.782Z,8.80
2023-05-20T14:38:51.596Z,8.60
2023-05-20T14:41:18.402Z,10.25
2023-05-20T14:43:45.187Z,10.43
2023-05-20T14:46:12.495Z,10.63
2023-05-20T14:48:39.393Z,11.70
2023-05-20T14:51:06.180Z,10.70
2023-05-20T14:53:32.871Z,11.52
2023-05-20T14:56:00.188Z,11.07
2023-05-20T14:58:26.960Z,12.02
2023-05-20T15:00:53.851Z,12.15
2023-05-20T15:03:20.771Z,11.10
2023-05-20T15:05:47.491Z,11.55
2023-05-20T15:08:14.372Z,9.98
2023-05-20T15:10:41.610Z,14.88
2023-05-20T15:13:08.367Z,10.43
2023-05-20T15:15:35.152Z,11.77
2023-05-20T15:18:02.506Z,13.88
2023-05-20T15:20:29.349Z,11.50
2023-05-20T15:22:58.535Z,10.15
2023-05-20T15:25:26.566Z,13.07
2023-05-20T15:27:53.719Z,11.95
2023-05-20T15:30:22.883Z,11.98
2023-05-20T15:32:49.797Z,11.73
2023-05-20T15:35:16.668Z,12.25
2023-05-20T15:37:43.466Z,12.15
2023-05-20T15:40:10.747Z,10.50
2023-05-20T15:42:38.036Z,11.75
2023-05-20T15:45:05.056Z,10.55
2023-05-20T15:47:31.927Z,12.13
2023-05-20T15:49:58.764Z,11.50
2023-05-20T15:52:25.975Z,13.60
2023-05-20T15:54:53.341Z,13.55
2023-05-20T15:57:20.349Z,14.15
2023-05-20T15:59:47.205Z,12.70
2023-05-20T16:02:14.160Z,12.55
2023-05-20T16:04:40.953Z,11.32
2023-05-20T16:07:07.714Z,11.50
2023-05-20T16:09:34.428Z,15.38
2023-05-20T16:12:01.153Z,11.15
2023-05-20T16:14:28.002Z,12.43
2023-05-20T16:16:54.858Z,13.15
2023-05-20T16:19:22.296Z,11.38
2023-05-20T16:21:49.448Z,12.25
2023-05-20T16:24:16.320Z,10.80
2023-05-20T16:26:43.108Z,10.13
2023-05-20T16:29:09.829Z,11.20
2023-05-20T16:31:36.641Z,11.95
2023-05-20T16:34:04.127Z,11.82
2023-05-20T16:36:31.214Z,11.18
2023-05-20T16:38:57.902Z,12.77
2023-05-20T16:41:25.248Z,13.88
2023-05-20T16:43:52.058Z,11.07
2023-05-20T16:46:18.978Z,13.57
2023-05-20T16:48:46.352Z,11.27
2023-05-20T16:51:13.117Z,8.82
2023-05-20T16:53:39.829Z,9.00
2023-05-20T16:56:06.984Z,7.03
2023-05-20T16:58:33.782Z,7.53
2023-05-20T17:01:02.147Z,8.05
2023-05-20T17:03:29.003Z,8.98
2023-05-20T17:05:56.089Z,8.95
2023-05-20T17:08:22.938Z,9.35
2023-05-20T17:10:51.344Z,8.25
2023-05-20T17:13:19.998Z,12.32
2023-05-20T17:15:46.731Z,9.40
2023-05-20T17:18:14.024Z,10.02
2023-05-20T17:20:40.827Z,9.10
2023-05-20T17:23:07.554Z,10.10
2023-05-20T17:25:34.414Z,10.52
2023-05-20T17:28:01.919Z,9.50
2023-05-20T17:30:28.726Z,12.05
2023-05-20T17:32:56.495Z,10.57
2023-05-20T17:35:25.953Z,10.00
2023-05-20T17:37:54.227Z,10.65
2023-05-20T17:40:21.955Z,10.48
2023-05-20T17:42:48.731Z,10.27
2023-05-20T17:45:16.416Z,11.65
2023-05-20T17:47:43.224Z,13.20
2023-05-20T17:50:10.453Z,11.07
2023-05-20T17:52:37.294Z,10.77
2023-05-20T17:55:05.197Z,11.65
2023-05-20T17:57:31.907Z,10.05
2023-05-20T17:59:58.734Z,12.27
2023-05-20T18:02:25.575Z,12.10
2023-05-20T18:04:52.409Z,11.07
2023-05-20T18:07:19.194Z,12.45
2023-05-20T18:09:46.180Z,11.32
2023-05-20T18:12:12.933Z,10.90
2023-05-20T18:14:40.153Z,12.45
2023-05-20T18:17:07.388Z,12.15
2023-05-20T18:19:34.146Z,12.10
2023-05-20T18:22:03.094Z,12.68
2023-05-20T18:24:29.913Z,11.90
2023-05-20T18:26:57.372Z,14.35
2023-05-20T18:29:25.790Z,12.13
2023-05-20T18:31:52.749Z,11.13
2023-05-20T18:34:19.882Z,11.70
2023-05-20T18:36:47.336Z,11.48
2023-05-20T18:39:19.138Z,11.00
2023-05-20T18:41:47.612Z,11.52
2023-05-20T18:44:16.630Z,13.07
2023-05-20T18:46:43.680Z,12.48
2023-05-20T18:49:14.282Z,12.35
2023-05-20T18:51:41.912Z,12.50
2023-05-20T18:54:08.745Z,11.25
2023-05-20T18:56:36.578Z,11.60
2023-05-20T18:59:03.358Z,12.18
2023-05-20T19:01:30.423Z,10.82
2023-05-20T19:03:57.251Z,14.77
2023-05-20T19:06:24.118Z,12.30
2023-05-20T19:08:51.090Z,13.02
2023-05-20T19:11:17.952Z,12.98
2023-05-20T19:13:44.789Z,11.98
2023-05-20T19:16:11.492Z,11.35
2023-05-20T19:18:38.643Z,10.82
2023-05-20T19:21:05.998Z,11.55
2023-05-20T19:23:32.882Z,12.50
2023-05-20T19:25:59.660Z,11.27
2023-05-20T19:28:26.888Z,11.32
2023-05-20T19:30:53.954Z,14.45
2023-05-20T19:33:21.562Z,10.75
2023-05-20T19:35:48.674Z,11.90
2023-05-20T19:38:15.829Z,11.48
2023-05-20T19:40:44.650Z,13.25
2023-05-20T19:43:11.609Z,12.35
2023-05-20T19:45:38.828Z,11.50
2023-05-20T19:48:07.183Z,11.70
2023-05-20T19:50:34.444Z,12.05
2023-05-20T19:53:03.492Z,12.43
2023-05-20T19:55:30.353Z,11.70
2023-05-20T19:57:57.424Z,12.18
2023-05-20T20:00:24.489Z,11.00
2023-05-20T20:02:51.493Z,12.68
2023-05-20T20:05:19.271Z,12.13
2023-05-20T20:07:48.493Z,12.40
2023-05-20T20:10:15.835Z,12.05
2023-05-20T20:12:43.089Z,11.48
2023-05-20T20:15:10.976Z,12.75
2023-05-20T20:17:38.309Z,12.65
2023-05-20T20:20:10.505Z,15.05
2023-05-20T20:22:37.221Z,14.15
2023-05-20T20:25:04.584Z,18.73
2023-05-20T20:27:33.746Z,16.77
2023-05-20T20:30:01.020Z,15.40
2023-05-20T20:32:28.258Z,16.45
2023-05-20T20:34:55.507Z,14.95
2023-05-20T20:37:23.305Z,14.55
2023-05-20T20:39:50.368Z,13.82
2023-05-20T20:42:17.036Z,15.15
2023-05-20T20:44:48.481Z,14.27
2023-05-20T20:47:15.879Z,14.85
2023-05-20T20:49:42.984Z,15.88
2023-05-20T20:52:11.447Z,15.27
2023-05-20T20:54:40.706Z,15.65
2023-05-20T20:57:08.844Z,15.80
2023-05-20T20:59:35.540Z,15.27
2023-05-20T21:02:03.385Z,15.70
2023-05-20T21:04:30.264Z,20.40
2023-05-20T21:06:59.533Z,15.45
2023-05-20T21:09:27.527Z,15.13
2023-05-20T21:11:54.199Z,14.98
2023-05-20T21:14:21.479Z,15.85
2023-05-20T21:16:48.390Z,16.10
2023-05-20T21:19:15.097Z,15.90
2023-05-20T21:21:42.633Z,15.10
2023-05-20T21:24:09.694Z,18.02
2023-05-20T21:26:37.220Z,16.08
2023-05-20T21:29:04.001Z,17.48
2023-05-20T21:31:30.877Z,15.55
2023-05-20T21:33:57.933Z,15.85
2023-05-20T21:36:24.751Z,15.52
2023-05-20T21:38:51.819Z,15.23
2023-05-20T21:41:18.500Z,14.82
2023-05-20T21:43:45.604Z,14.80
2023-05-20T21:46:12.391Z,16.25
2023-05-20T21:48:39.330Z,15.25
2023-05-20T21:51:06.180Z,15.85
2023-05-20T21:53:33.282Z,16.35
2023-05-20T21:56:00.134Z,14.82
2023-05-20T21:58:27.506Z,16.83
2023-05-20T22:00:55.119Z,17.27
2023-05-20T22:03:22.318Z,14.07
2023-05-20T22:05:49.837Z,15.50
2023-05-20T22:08:17.965Z,14.77
2023-05-20T22:10:45.002Z,14.32
2023-05-20T22:13:13.754Z,12.52
2023-05-20T22:15:40.885Z,15.05
2023-05-20T22:18:07.995Z,16.23
2023-05-20T22:20:35.425Z,17.98
2023-05-20T22:23:02.802Z,17.27
2023-05-20T22:25:29.431Z,20.60
2023-05-20T22:27:58.944Z,29.80
2023-05-20T22:30:26.411Z,40.90
2023-05-20T22:32:53.814Z,40.33
2023-05-20T22:35:20.609Z,39.42
2023-05-20T22:37:48.405Z,29.25
2023-05-20T22:40:16.310Z,26.23
2023-05-20T22:42:43.143Z,21.95
2023-05-20T22:45:10.267Z,21.13
2023-05-20T22:47:37.061Z,21.17
2023-05-20T22:50:04.176Z,20.50
2023-05-20T22:52:32.753Z,21.55
2023-05-20T22:55:00.612Z,20.23
2023-05-20T22:57:27.603Z,19.83
2023-05-20T22:59:56.263Z,27.50
2023-05-20T23:02:26.634Z,20.70
2023-05-20T23:04:53.446Z,19.55
2023-05-20T23:07:20.956Z,20.92
2023-05-20T23:09:49.246Z,21.00
2023-05-20T23:12:16.688Z,18.73
2023-05-20T23:14:43.478Z,17.38
2023-05-20T23:17:10.849Z,18.33
2023-05-20T23:19:37.656Z,19.88
2023-05-20T23:22:04.828Z,19.67
2023-05-20T23:24:31.827Z,18.55
2023-05-20T23:26:59.740Z,18.60
2023-05-20T23:29:27.178Z,16.70
2023-05-20T23:31:53.929Z,15.55
2023-05-20T23:34:20.650Z,15.95
2023-05-20T23:36:47.388Z,16.45
2023-05-20T23:39:15.651Z,15.63
2023-05-20T23:41:44.347Z,17.85
2023-05-20T23:44:11.473Z,16.52
2023-05-20T23:46:38.396Z,20.95
2023-05-20T23:49:06.302Z,15.65
2023-05-20T23:51:33.016Z,14.15
2023-05-20T23:54:00.189Z,15.73
2023-05-20T23:56:27.109Z,17.92
2023-05-20T23:58:54.452Z,13.75
